Mojave, CA

4:22 PM PST on December 14, 2019 (GMT -0800)
Mojave

Weather History for KMHV - October, 2019

Change the Weather History Date:

Wednesday, October 2, 2019

  Actual Average Record
Temperature  
Mean Temperature 56 °F -  
Max Temperature 73 °F 84 °F 100 °F (2001)
Min Temperature 39 °F 55 °F 38 °F (1971)
Degree Days  
Heating Degree Days 9    
Growing Degree Days 6 (Base 50)    
Moisture  
Dew Point 21 °F    
Average Humidity 27    
Maximum Humidity 53    
Minimum Humidity 11    
Precipitation  
Precipitation 0.00 in - - ()
Sea Level Pressure  
Sea Level Pressure 30.01 in    
Wind  
Wind Speed 5 mph (North)    
Max Wind Speed 13 mph    
Max Gust Speed 18 mph    
Visibility 10 miles    
Events      
Averages and records for this station are not official NWS values.
T = Trace of Precipitation, MM = Missing Value Source: NWS Daily Summary

Daily Weather History Graph

Daily Weather History Graph

Search for Another Location

Airport or City:

Astronomy

Oct. 02, 2019 Rise Set
Actual Time 6:48 AM PDT 6:35 PM PDT
Civil Twilight 6:22 AM PDT 7:00 PM PDT
Nautical Twilight 5:53 AM PDT 7:29 PM PDT
Astronomical Twilight 5:23 AM PDT 7:59 PM PDT
Moon 11:09 AM PDT (10/2) 9:42 PM PDT (10/2)
Length of Visible Light 12h 37m
Length of Day
11h 47m
Waxing Crescent, 21% of the Moon is Illuminated
Oct 2
Waxing Crescent
Oct 5
First Quarter
Oct 13
Full
Oct 21
Last Quarter
Oct 27
New

Hourly Weather History & Observations

Time (PDT) Temp. Windchill Dew Point Humidity Pressure Visibility Wind Dir Wind Speed Gust Speed Precip Events Conditions
12:00 AM 51.8 °F - 26.6 °F 38% 29.96 in 10.0 mi WNW 6.9 mph - N/A   Clear
12:20 AM 51.8 °F - 26.6 °F 38% 29.97 in 10.0 mi West 6.9 mph - N/A   Clear
12:40 AM 50.0 °F - 24.8 °F 37% 29.97 in 10.0 mi Calm Calm - N/A   Clear
1:00 AM 51.8 °F - 24.8 °F 35% 29.97 in 10.0 mi Calm Calm - N/A   Clear
1:20 AM 50.0 °F - 24.8 °F 37% 29.98 in 10.0 mi Calm Calm - N/A   Clear
1:40 AM 48.2 °F - 24.8 °F 40% 29.98 in 10.0 mi Calm Calm - N/A   Clear
2:00 AM 46.4 °F 43.5 °F 23.0 °F 40% 29.99 in 10.0 mi SE 5.8 mph - N/A   Clear
2:20 AM 46.4 °F - 23.0 °F 40% 29.99 in 10.0 mi Calm Calm - N/A   Clear
2:40 AM 44.6 °F - 23.0 °F 43% 29.99 in 10.0 mi Calm Calm - N/A   Clear
3:00 AM 44.6 °F - 23.0 °F 43% 30.00 in 10.0 mi Calm Calm - N/A   Clear
3:20 AM 44.6 °F 40.7 °F 21.2 °F 39% 29.99 in 7.0 mi North 6.9 mph - N/A   Clear
3:40 AM 42.8 °F 38.0 °F 23.0 °F 46% 29.99 in 10.0 mi NNW 8.1 mph - N/A   Clear
4:00 AM 42.8 °F 39.3 °F 23.0 °F 46% 29.99 in 10.0 mi NNW 5.8 mph - N/A   Clear
4:20 AM 41.0 °F 38.0 °F 21.2 °F 45% 30.00 in 10.0 mi North 4.6 mph - N/A   Clear
4:40 AM 41.0 °F 37.1 °F 21.2 °F 45% 30.00 in 10.0 mi NNE 5.8 mph - N/A   Clear
5:00 AM 42.8 °F 38.6 °F 23.0 °F 46% 30.01 in 10.0 mi North 6.9 mph - N/A   Clear
5:20 AM 41.0 °F 36.4 °F 24.8 °F 53% 30.01 in 10.0 mi North 6.9 mph - N/A   Clear
5:40 AM 41.0 °F 36.4 °F 24.8 °F 53% 30.02 in 10.0 mi North 6.9 mph - N/A   Partly Cloudy
6:00 AM 41.0 °F 37.1 °F 24.8 °F 53% 30.02 in 10.0 mi North 5.8 mph - N/A   Clear
6:20 AM 39.2 °F 37.0 °F 23.0 °F 52% 30.02 in 7.0 mi NNW 3.5 mph - N/A   Clear
6:40 AM 39.2 °F 37.0 °F 23.0 °F 52% 30.03 in 7.0 mi NW 3.5 mph - N/A   Clear
7:00 AM 41.0 °F 36.4 °F 23.0 °F 49% 30.03 in 9.0 mi NNW 6.9 mph - N/A   Clear
7:20 AM 42.8 °F 38.6 °F 24.8 °F 49% 30.04 in 4.0 mi NNW 6.9 mph - N/A   Haze
7:40 AM 46.4 °F - 24.8 °F 43% 30.05 in 8.0 mi Calm Calm - N/A   Clear
8:00 AM 51.8 °F - 24.8 °F 35% 30.06 in 10.0 mi Calm Calm - N/A   Clear
8:20 AM 55.4 °F - 26.6 °F 33% 30.06 in 9.0 mi Calm Calm - N/A   Clear
8:40 AM 51.8 °F - 24.8 °F 35% 30.07 in 9.0 mi Calm Calm - N/A   Clear
9:00 AM 55.4 °F - 24.8 °F 31% 30.08 in 9.0 mi Calm Calm - N/A   Clear
9:20 AM 55.4 °F - 26.6 °F 33% 30.08 in 10.0 mi East 4.6 mph - N/A   Clear
9:40 AM 57.2 °F - 26.6 °F 31% 30.09 in 10.0 mi Variable 4.6 mph - N/A   Clear
10:00 AM 59.0 °F - 24.8 °F 27% 30.09 in 10.0 mi East 5.8 mph - N/A   Clear
10:20 AM 62.6 °F - 23.0 °F 22% 30.09 in 10.0 mi ENE 8.1 mph - N/A   Clear
10:40 AM 64.4 °F - 23.0 °F 21% 30.09 in 10.0 mi NE 11.5 mph - N/A   Clear
11:00 AM 66.2 °F - 21.2 °F 18% 30.09 in 10.0 mi ENE 11.5 mph 18.4 mph N/A   Clear
11:20 AM 66.2 °F - 21.2 °F 18% 30.08 in 10.0 mi ENE 12.7 mph - N/A   Clear
11:40 AM 68.0 °F - 21.2 °F 17% 30.08 in 10.0 mi ENE 6.9 mph 15.0 mph N/A   Clear
12:00 PM 68.0 °F - 21.2 °F 17% 30.08 in 10.0 mi ENE 12.7 mph - N/A   Clear
12:20 PM 68.0 °F - 21.2 °F 17% 30.07 in 10.0 mi East 11.5 mph 17.3 mph N/A   Clear
12:40 PM 69.8 °F - 21.2 °F 16% 30.06 in 10.0 mi ENE 11.5 mph - N/A   Clear
1:00 PM 69.8 °F - 19.4 °F 15% 30.05 in 10.0 mi East 12.7 mph - N/A   Clear
1:20 PM 71.6 °F - 19.4 °F 14% 30.04 in 10.0 mi East 12.7 mph - N/A   Clear
1:40 PM 71.6 °F - 19.4 °F 14% 30.03 in 10.0 mi East 11.5 mph - N/A   Clear
2:00 PM 71.6 °F - 19.4 °F 14% 30.03 in 10.0 mi Variable 5.8 mph 12.7 mph N/A   Clear
2:20 PM 71.6 °F - 19.4 °F 14% 30.02 in 10.0 mi East 9.2 mph 17.3 mph N/A   Unknown
2:40 PM 71.6 °F - 19.4 °F 14% 30.01 in 10.0 mi SE 6.9 mph 12.7 mph N/A   Clear
3:00 PM 73.4 °F - 19.4 °F 13% 30.00 in 10.0 mi NE 8.1 mph - N/A   Clear
3:20 PM 73.4 °F - 19.4 °F 13% 30.00 in 10.0 mi Calm Calm - N/A   Clear
3:40 PM 73.4 °F - 17.6 °F 12% 29.99 in 10.0 mi Variable 3.5 mph - N/A   Clear
4:00 PM 73.4 °F - 17.6 °F 12% 29.98 in 10.0 mi Variable 4.6 mph - N/A   Partly Cloudy
4:20 PM 73.4 °F - 15.8 °F 11% 29.98 in 10.0 mi Calm Calm - N/A   Clear
4:40 PM 73.4 °F - 15.8 °F 11% 29.98 in 10.0 mi ENE 5.8 mph - N/A   Clear
5:00 PM 73.4 °F - 15.8 °F 11% 29.98 in 10.0 mi Variable 4.6 mph - N/A   Clear
5:20 PM 73.4 °F - 15.8 °F 11% 29.98 in 10.0 mi North 4.6 mph - N/A   Clear
5:40 PM 73.4 °F - 15.8 °F 11% 29.97 in 10.0 mi ENE 3.5 mph - N/A   Clear
6:00 PM 73.4 °F - 15.8 °F 11% 29.98 in 10.0 mi ENE 4.6 mph - N/A   Clear
6:20 PM 71.6 °F - 15.8 °F 12% 29.97 in 10.0 mi Calm Calm - N/A   Clear
6:40 PM 71.6 °F - 15.8 °F 12% 29.98 in 10.0 mi Calm Calm - N/A   Clear
7:00 PM 66.2 °F - 15.8 °F 14% 29.98 in 9.0 mi NW 6.9 mph - N/A   Clear
7:20 PM 60.8 °F - 14.0 °F 16% 29.97 in 10.0 mi NW 10.4 mph - N/A   Clear
7:40 PM 60.8 °F - 14.0 °F 16% 29.98 in 10.0 mi NW 11.5 mph - N/A   Clear
8:00 PM 60.8 °F - 14.0 °F 16% 29.98 in 10.0 mi NW 9.2 mph - N/A   Partly Cloudy
8:20 PM 59.0 °F - 14.0 °F 17% 29.98 in 10.0 mi NNW 10.4 mph - N/A   Scattered Clouds
8:40 PM 59.0 °F - 15.8 °F 19% 29.99 in 10.0 mi NW 10.4 mph - N/A   Mostly Cloudy
9:00 PM 59.0 °F - 17.6 °F 20% 29.99 in 10.0 mi NW 10.4 mph - N/A   Mostly Cloudy
9:20 PM 59.0 °F - 19.4 °F 22% 29.99 in 10.0 mi NW 10.4 mph - N/A   Mostly Cloudy
9:40 PM 57.2 °F - 17.6 °F 21% 30.00 in 10.0 mi NNW 10.4 mph - N/A   Overcast
10:00 PM 57.2 °F - 19.4 °F 23% 30.00 in 10.0 mi NNW 11.5 mph - N/A   Overcast
10:20 PM 57.2 °F - 19.4 °F 23% 30.00 in 10.0 mi NW 11.5 mph - N/A   Overcast
10:40 PM 57.2 °F - 19.4 °F 23% 30.00 in 10.0 mi NW 10.4 mph - N/A   Mostly Cloudy
11:00 PM 55.4 °F - 19.4 °F 25% 30.00 in 10.0 mi NNW 10.4 mph - N/A   Mostly Cloudy
11:20 PM 55.4 °F - 21.2 °F 26% 30.01 in 10.0 mi NNW 8.1 mph - N/A   Mostly Cloudy
11:40 PM 53.6 °F - 19.4 °F 26% 30.01 in 10.0 mi WNW 6.9 mph - N/A   Mostly Cloudy